sensor_id;sensor_type;location;lat;lon;timestamp;P1;durP1;ratioP1;P2;durP2;ratioP2
35839;SDS011;35514;50.504;30.500;2022-10-16T00:01:19;11.10;;;4.63;;
35839;SDS011;35514;50.504;30.500;2022-10-16T00:03:47;11.80;;;5.03;;
35839;SDS011;35514;50.504;30.500;2022-10-16T00:06:17;10.80;;;4.15;;
35839;SDS011;35514;50.504;30.500;2022-10-16T00:08:45;8.45;;;4.43;;
35839;SDS011;35514;50.504;30.500;2022-10-16T00:11:13;11.45;;;4.70;;
35839;SDS011;35514;50.504;30.500;2022-10-16T00:13:42;15.52;;;4.38;;
35839;SDS011;35514;50.504;30.500;2022-10-16T00:16:10;11.35;;;4.72;;
35839;SDS011;35514;50.504;30.500;2022-10-16T00:18:38;16.70;;;4.68;;
35839;SDS011;35514;50.504;30.500;2022-10-16T00:21:06;13.07;;;4.53;;
35839;SDS011;35514;50.504;30.500;2022-10-16T00:23:36;10.07;;;4.07;;
35839;SDS011;35514;50.504;30.500;2022-10-16T00:26:05;13.52;;;4.68;;
35839;SDS011;35514;50.504;30.500;2022-10-16T00:28:34;7.93;;;4.22;;
35839;SDS011;35514;50.504;30.500;2022-10-16T00:31:09;7.93;;;4.25;;
35839;SDS011;35514;50.504;30.500;2022-10-16T00:33:37;10.68;;;4.63;;
35839;SDS011;35514;50.504;30.500;2022-10-16T00:36:09;11.38;;;4.90;;
35839;SDS011;35514;50.504;30.500;2022-10-16T00:38:39;14.88;;;4.35;;
35839;SDS011;35514;50.504;30.500;2022-10-16T00:41:09;10.48;;;4.78;;
35839;SDS011;35514;50.504;30.500;2022-10-16T00:43:39;9.52;;;4.90;;
35839;SDS011;35514;50.504;30.500;2022-10-16T00:46:10;11.65;;;5.43;;
35839;SDS011;35514;50.504;30.500;2022-10-16T00:48:38;12.77;;;5.38;;
35839;SDS011;35514;50.504;30.500;2022-10-16T00:51:06;12.77;;;4.90;;
35839;SDS011;35514;50.504;30.500;2022-10-16T00:53:34;10.32;;;4.75;;
35839;SDS011;35514;50.504;30.500;2022-10-16T00:56:06;10.85;;;5.40;;
35839;SDS011;35514;50.504;30.500;2022-10-16T00:58:35;11.30;;;5.05;;
35839;SDS011;35514;50.504;30.500;2022-10-16T01:01:02;13.18;;;5.63;;
35839;SDS011;35514;50.504;30.500;2022-10-16T01:03:31;11.68;;;5.82;;
35839;SDS011;35514;50.504;30.500;2022-10-16T01:06:07;10.85;;;5.32;;
35839;SDS011;35514;50.504;30.500;2022-10-16T01:08:45;14.07;;;5.60;;
35839;SDS011;35514;50.504;30.500;2022-10-16T01:11:19;20.48;;;6.07;;
35839;SDS011;35514;50.504;30.500;2022-10-16T01:16:17;14.40;;;6.03;;
35839;SDS011;35514;50.504;30.500;2022-10-16T01:18:46;16.65;;;5.90;;
35839;SDS011;35514;50.504;30.500;2022-10-16T01:21:17;14.32;;;6.35;;
35839;SDS011;35514;50.504;30.500;2022-10-16T01:23:48;20.27;;;7.32;;
35839;SDS011;35514;50.504;30.500;2022-10-16T01:26:23;16.15;;;7.53;;
35839;SDS011;35514;50.504;30.500;2022-10-16T01:28:59;15.15;;;7.38;;
35839;SDS011;35514;50.504;30.500;2022-10-16T01:31:29;16.88;;;7.13;;
35839;SDS011;35514;50.504;30.500;2022-10-16T01:34:00;19.08;;;7.15;;
35839;SDS011;35514;50.504;30.500;2022-10-16T01:36:34;16.53;;;7.60;;
35839;SDS011;35514;50.504;30.500;2022-10-16T01:39:03;21.48;;;8.27;;
35839;SDS011;35514;50.504;30.500;2022-10-16T01:41:31;18.90;;;8.40;;
35839;SDS011;35514;50.504;30.500;2022-10-16T01:44:04;22.80;;;9.45;;
35839;SDS011;35514;50.504;30.500;2022-10-16T01:46:39;23.15;;;9.15;;
35839;SDS011;35514;50.504;30.500;2022-10-16T01:49:08;18.55;;;8.05;;
35839;SDS011;35514;50.504;30.500;2022-10-16T01:51:37;24.02;;;8.10;;
35839;SDS011;35514;50.504;30.500;2022-10-16T01:54:06;20.35;;;7.50;;
35839;SDS011;35514;50.504;30.500;2022-10-16T01:56:35;22.98;;;7.95;;
35839;SDS011;35514;50.504;30.500;2022-10-16T01:59:06;18.15;;;8.15;;
35839;SDS011;35514;50.504;30.500;2022-10-16T02:01:35;19.90;;;7.65;;
35839;SDS011;35514;50.504;30.500;2022-10-16T02:04:07;20.73;;;8.30;;
35839;SDS011;35514;50.504;30.500;2022-10-16T02:06:36;22.17;;;8.98;;
35839;SDS011;35514;50.504;30.500;2022-10-16T02:09:04;18.70;;;8.07;;
35839;SDS011;35514;50.504;30.500;2022-10-16T02:11:32;20.13;;;8.38;;
35839;SDS011;35514;50.504;30.500;2022-10-16T02:14:00;18.10;;;8.35;;
35839;SDS011;35514;50.504;30.500;2022-10-16T02:16:34;20.98;;;8.65;;
35839;SDS011;35514;50.504;30.500;2022-10-16T02:19:02;20.70;;;9.02;;
35839;SDS011;35514;50.504;30.500;2022-10-16T02:21:33;15.40;;;8.13;;
35839;SDS011;35514;50.504;30.500;2022-10-16T02:24:06;22.73;;;9.15;;
35839;SDS011;35514;50.504;30.500;2022-10-16T02:26:35;23.13;;;8.75;;
35839;SDS011;35514;50.504;30.500;2022-10-16T02:29:05;26.77;;;8.93;;
35839;SDS011;35514;50.504;30.500;2022-10-16T02:31:35;17.88;;;7.88;;
35839;SDS011;35514;50.504;30.500;2022-10-16T02:34:05;23.17;;;8.05;;
35839;SDS011;35514;50.504;30.500;2022-10-16T02:36:33;16.92;;;8.07;;
35839;SDS011;35514;50.504;30.500;2022-10-16T02:39:02;20.48;;;8.15;;
35839;SDS011;35514;50.504;30.500;2022-10-16T02:41:31;18.42;;;8.68;;
35839;SDS011;35514;50.504;30.500;2022-10-16T02:43:59;20.48;;;9.40;;
35839;SDS011;35514;50.504;30.500;2022-10-16T02:46:26;19.30;;;9.85;;
35839;SDS011;35514;50.504;30.500;2022-10-16T02:48:55;29.15;;;10.68;;
35839;SDS011;35514;50.504;30.500;2022-10-16T02:51:22;30.73;;;9.82;;
35839;SDS011;35514;50.504;30.500;2022-10-16T02:53:50;20.10;;;8.82;;
35839;SDS011;35514;50.504;30.500;2022-10-16T02:56:17;22.75;;;8.80;;
35839;SDS011;35514;50.504;30.500;2022-10-16T02:58:50;22.75;;;9.55;;
35839;SDS011;35514;50.504;30.500;2022-10-16T03:01:17;17.52;;;9.38;;
35839;SDS011;35514;50.504;30.500;2022-10-16T03:03:45;25.77;;;9.07;;
35839;SDS011;35514;50.504;30.500;2022-10-16T03:06:14;24.52;;;9.18;;
35839;SDS011;35514;50.504;30.500;2022-10-16T03:08:41;30.23;;;9.52;;
35839;SDS011;35514;50.504;30.500;2022-10-16T03:11:09;21.23;;;9.25;;
35839;SDS011;35514;50.504;30.500;2022-10-16T03:13:36;22.30;;;9.30;;
35839;SDS011;35514;50.504;30.500;2022-10-16T03:16:04;26.38;;;9.90;;
35839;SDS011;35514;50.504;30.500;2022-10-16T03:18:32;18.20;;;8.05;;
35839;SDS011;35514;50.504;30.500;2022-10-16T03:20:59;20.35;;;9.27;;
35839;SDS011;35514;50.504;30.500;2022-10-16T03:23:28;20.38;;;8.45;;
35839;SDS011;35514;50.504;30.500;2022-10-16T03:25:56;20.38;;;9.15;;
35839;SDS011;35514;50.504;30.500;2022-10-16T03:28:23;25.67;;;9.52;;
35839;SDS011;35514;50.504;30.500;2022-10-16T03:30:51;19.48;;;8.95;;
35839;SDS011;35514;50.504;30.500;2022-10-16T03:33:18;21.77;;;9.07;;
35839;SDS011;35514;50.504;30.500;2022-10-16T03:35:50;21.17;;;9.43;;
35839;SDS011;35514;50.504;30.500;2022-10-16T03:38:18;26.83;;;9.85;;
35839;SDS011;35514;50.504;30.500;2022-10-16T03:40:47;23.23;;;9.55;;
35839;SDS011;35514;50.504;30.500;2022-10-16T03:43:14;21.77;;;10.07;;
35839;SDS011;35514;50.504;30.500;2022-10-16T03:45:42;20.92;;;9.52;;
35839;SDS011;35514;50.504;30.500;2022-10-16T03:48:10;22.80;;;9.48;;
35839;SDS011;35514;50.504;30.500;2022-10-16T03:50:37;25.77;;;9.77;;
35839;SDS011;35514;50.504;30.500;2022-10-16T03:53:05;27.15;;;9.98;;
35839;SDS011;35514;50.504;30.500;2022-10-16T03:55:33;25.02;;;11.10;;
35839;SDS011;35514;50.504;30.500;2022-10-16T03:58:01;24.80;;;9.50;;
35839;SDS011;35514;50.504;30.500;2022-10-16T04:00:29;23.58;;;9.25;;
35839;SDS011;35514;50.504;30.500;2022-10-16T04:02:57;22.42;;;10.52;;
35839;SDS011;35514;50.504;30.500;2022-10-16T04:05:24;21.67;;;9.13;;
35839;SDS011;35514;50.504;30.500;2022-10-16T04:07:52;23.75;;;9.23;;
35839;SDS011;35514;50.504;30.500;2022-10-16T04:10:21;24.17;;;9.95;;
35839;SDS011;35514;50.504;30.500;2022-10-16T04:12:48;22.33;;;9.55;;
35839;SDS011;35514;50.504;30.500;2022-10-16T04:15:17;20.10;;;9.50;;
35839;SDS011;35514;50.504;30.500;2022-10-16T04:17:45;26.10;;;10.40;;
35839;SDS011;35514;50.504;30.500;2022-10-16T04:20:13;25.40;;;10.43;;
35839;SDS011;35514;50.504;30.500;2022-10-16T04:22:40;21.05;;;9.63;;
35839;SDS011;35514;50.504;30.500;2022-10-16T04:25:08;29.83;;;10.32;;
35839;SDS011;35514;50.504;30.500;2022-10-16T04:27:37;23.25;;;10.60;;
35839;SDS011;35514;50.504;30.500;2022-10-16T04:30:10;26.50;;;11.05;;
35839;SDS011;35514;50.504;30.500;2022-10-16T04:32:39;23.35;;;10.40;;
35839;SDS011;35514;50.504;30.500;2022-10-16T04:35:07;23.48;;;10.75;;
35839;SDS011;35514;50.504;30.500;2022-10-16T04:37:34;18.90;;;9.05;;
35839;SDS011;35514;50.504;30.500;2022-10-16T04:40:02;21.05;;;10.27;;
35839;SDS011;35514;50.504;30.500;2022-10-16T04:42:30;19.25;;;9.30;;
35839;SDS011;35514;50.504;30.500;2022-10-16T04:44:57;22.98;;;10.15;;
35839;SDS011;35514;50.504;30.500;2022-10-16T04:47:25;27.83;;;9.70;;
35839;SDS011;35514;50.504;30.500;2022-10-16T04:49:55;23.90;;;10.30;;
35839;SDS011;35514;50.504;30.500;2022-10-16T04:52:23;21.83;;;8.55;;
35839;SDS011;35514;50.504;30.500;2022-10-16T04:54:52;19.73;;;9.27;;
35839;SDS011;35514;50.504;30.500;2022-10-16T04:57:20;21.88;;;9.48;;
35839;SDS011;35514;50.504;30.500;2022-10-16T04:59:48;25.00;;;10.23;;
35839;SDS011;35514;50.504;30.500;2022-10-16T05:02:15;18.25;;;8.02;;
35839;SDS011;35514;50.504;30.500;2022-10-16T05:04:43;19.60;;;8.90;;
35839;SDS011;35514;50.504;30.500;2022-10-16T05:07:12;20.45;;;9.00;;
35839;SDS011;35514;50.504;30.500;2022-10-16T05:09:40;17.05;;;8.43;;
35839;SDS011;35514;50.504;30.500;2022-10-16T05:12:08;23.48;;;9.40;;
35839;SDS011;35514;50.504;30.500;2022-10-16T05:14:47;20.35;;;8.88;;
35839;SDS011;35514;50.504;30.500;2022-10-16T05:17:14;22.08;;;8.63;;
35839;SDS011;35514;50.504;30.500;2022-10-16T05:19:42;19.85;;;8.85;;
35839;SDS011;35514;50.504;30.500;2022-10-16T05:22:10;18.75;;;9.10;;
35839;SDS011;35514;50.504;30.500;2022-10-16T05:24:39;22.58;;;8.82;;
35839;SDS011;35514;50.504;30.500;2022-10-16T05:27:07;23.20;;;9.27;;
35839;SDS011;35514;50.504;30.500;2022-10-16T05:29:34;16.23;;;8.10;;
35839;SDS011;35514;50.504;30.500;2022-10-16T05:32:02;21.13;;;9.18;;
35839;SDS011;35514;50.504;30.500;2022-10-16T05:35:09;17.20;;;7.93;;
35839;SDS011;35514;50.504;30.500;2022-10-16T05:38:12;21.27;;;8.32;;
35839;SDS011;35514;50.504;30.500;2022-10-16T05:40:44;17.60;;;7.88;;
35839;SDS011;35514;50.504;30.500;2022-10-16T05:43:19;15.57;;;8.15;;
35839;SDS011;35514;50.504;30.500;2022-10-16T05:46:16;18.95;;;7.57;;
35839;SDS011;35514;50.504;30.500;2022-10-16T05:49:01;17.55;;;7.60;;
35839;SDS011;35514;50.504;30.500;2022-10-16T05:51:29;16.27;;;8.38;;
35839;SDS011;35514;50.504;30.500;2022-10-16T05:56:16;16.52;;;8.95;;
35839;SDS011;35514;50.504;30.500;2022-10-16T06:04:12;14.88;;;6.57;;
35839;SDS011;35514;50.504;30.500;2022-10-16T06:06:42;18.98;;;8.00;;
35839;SDS011;35514;50.504;30.500;2022-10-16T06:09:22;23.73;;;7.72;;
35839;SDS011;35514;50.504;30.500;2022-10-16T06:11:51;15.38;;;8.02;;
35839;SDS011;35514;50.504;30.500;2022-10-16T06:14:19;19.08;;;9.38;;
35839;SDS011;35514;50.504;30.500;2022-10-16T06:16:46;16.15;;;8.10;;
35839;SDS011;35514;50.504;30.500;2022-10-16T06:19:16;20.75;;;8.25;;
35839;SDS011;35514;50.504;30.500;2022-10-16T06:21:44;21.83;;;8.55;;
35839;SDS011;35514;50.504;30.500;2022-10-16T06:24:14;26.77;;;8.40;;
35839;SDS011;35514;50.504;30.500;2022-10-16T06:26:45;18.63;;;8.20;;
35839;SDS011;35514;50.504;30.500;2022-10-16T06:29:13;21.10;;;8.50;;
35839;SDS011;35514;50.504;30.500;2022-10-16T06:31:42;18.10;;;8.10;;
35839;SDS011;35514;50.504;30.500;2022-10-16T06:34:13;18.65;;;7.25;;
35839;SDS011;35514;50.504;30.500;2022-10-16T06:36:42;17.83;;;8.00;;
35839;SDS011;35514;50.504;30.500;2022-10-16T06:39:10;14.20;;;8.05;;
35839;SDS011;35514;50.504;30.500;2022-10-16T06:41:38;21.80;;;7.40;;
35839;SDS011;35514;50.504;30.500;2022-10-16T06:44:05;18.63;;;7.65;;
35839;SDS011;35514;50.504;30.500;2022-10-16T06:46:33;19.95;;;7.50;;
35839;SDS011;35514;50.504;30.500;2022-10-16T06:49:01;13.85;;;6.35;;
35839;SDS011;35514;50.504;30.500;2022-10-16T06:51:29;15.80;;;6.15;;
35839;SDS011;35514;50.504;30.500;2022-10-16T06:54:07;12.00;;;5.57;;
35839;SDS011;35514;50.504;30.500;2022-10-16T06:56:39;10.02;;;4.70;;
35839;SDS011;35514;50.504;30.500;2022-10-16T06:59:33;13.25;;;4.80;;
35839;SDS011;35514;50.504;30.500;2022-10-16T07:02:01;9.73;;;4.78;;
35839;SDS011;35514;50.504;30.500;2022-10-16T07:04:29;11.05;;;4.85;;
35839;SDS011;35514;50.504;30.500;2022-10-16T07:06:56;10.18;;;4.70;;
35839;SDS011;35514;50.504;30.500;2022-10-16T07:09:26;11.13;;;4.50;;
35839;SDS011;35514;50.504;30.500;2022-10-16T07:11:56;8.27;;;4.30;;
35839;SDS011;35514;50.504;30.500;2022-10-16T07:15:01;9.95;;;5.40;;
35839;SDS011;35514;50.504;30.500;2022-10-16T07:17:38;11.80;;;5.13;;
35839;SDS011;35514;50.504;30.500;2022-10-16T07:20:07;8.52;;;4.43;;
35839;SDS011;35514;50.504;30.500;2022-10-16T07:22:49;7.82;;;3.80;;
35839;SDS011;35514;50.504;30.500;2022-10-16T07:25:26;8.75;;;4.50;;
35839;SDS011;35514;50.504;30.500;2022-10-16T07:27:54;8.32;;;4.20;;
35839;SDS011;35514;50.504;30.500;2022-10-16T07:30:24;10.43;;;4.40;;
35839;SDS011;35514;50.504;30.500;2022-10-16T07:32:52;12.05;;;4.78;;
35839;SDS011;35514;50.504;30.500;2022-10-16T07:35:21;10.68;;;4.57;;
35839;SDS011;35514;50.504;30.500;2022-10-16T07:37:49;11.50;;;4.72;;
35839;SDS011;35514;50.504;30.500;2022-10-16T07:40:17;12.48;;;6.95;;
35839;SDS011;35514;50.504;30.500;2022-10-16T07:42:46;14.57;;;4.55;;
35839;SDS011;35514;50.504;30.500;2022-10-16T07:45:13;8.02;;;4.10;;
35839;SDS011;35514;50.504;30.500;2022-10-16T07:47:41;17.92;;;4.55;;
35839;SDS011;35514;50.504;30.500;2022-10-16T07:50:10;11.57;;;4.32;;
35839;SDS011;35514;50.504;30.500;2022-10-16T07:52:37;7.28;;;4.07;;
35839;SDS011;35514;50.504;30.500;2022-10-16T07:55:06;11.20;;;4.53;;
35839;SDS011;35514;50.504;30.500;2022-10-16T07:57:34;12.52;;;3.53;;
35839;SDS011;35514;50.504;30.500;2022-10-16T08:00:06;9.25;;;4.55;;
35839;SDS011;35514;50.504;30.500;2022-10-16T08:02:39;7.75;;;4.18;;
35839;SDS011;35514;50.504;30.500;2022-10-16T08:05:07;12.15;;;4.22;;
35839;SDS011;35514;50.504;30.500;2022-10-16T08:07:42;7.25;;;4.15;;
35839;SDS011;35514;50.504;30.500;2022-10-16T08:10:11;11.30;;;4.25;;
35839;SDS011;35514;50.504;30.500;2022-10-16T08:12:43;7.30;;;4.00;;
35839;SDS011;35514;50.504;30.500;2022-10-16T08:15:12;7.35;;;3.85;;
35839;SDS011;35514;50.504;30.500;2022-10-16T08:21:12;15.38;;;4.25;;
35839;SDS011;35514;50.504;30.500;2022-10-16T08:23:48;11.45;;;5.53;;
35839;SDS011;35514;50.504;30.500;2022-10-16T08:26:23;8.18;;;4.72;;
35839;SDS011;35514;50.504;30.500;2022-10-16T08:28:51;9.38;;;3.90;;
35839;SDS011;35514;50.504;30.500;2022-10-16T08:31:23;7.90;;;3.55;;
35839;SDS011;35514;50.504;30.500;2022-10-16T08:33:53;8.13;;;4.47;;
35839;SDS011;35514;50.504;30.500;2022-10-16T08:36:20;9.63;;;3.97;;
35839;SDS011;35514;50.504;30.500;2022-10-16T08:38:48;10.85;;;4.45;;
35839;SDS011;35514;50.504;30.500;2022-10-16T08:41:22;8.05;;;4.43;;
35839;SDS011;35514;50.504;30.500;2022-10-16T08:44:03;9.93;;;4.25;;
35839;SDS011;35514;50.504;30.500;2022-10-16T08:46:37;21.50;;;4.43;;
35839;SDS011;35514;50.504;30.500;2022-10-16T08:49:10;8.77;;;4.60;;
35839;SDS011;35514;50.504;30.500;2022-10-16T08:51:55;9.27;;;3.72;;
35839;SDS011;35514;50.504;30.500;2022-10-16T08:54:40;6.43;;;4.00;;
35839;SDS011;35514;50.504;30.500;2022-10-16T08:57:09;7.25;;;3.33;;
35839;SDS011;35514;50.504;30.500;2022-10-16T08:59:38;8.20;;;3.50;;
35839;SDS011;35514;50.504;30.500;2022-10-16T09:02:20;5.28;;;3.20;;
35839;SDS011;35514;50.504;30.500;2022-10-16T09:04:57;9.15;;;3.30;;
35839;SDS011;35514;50.504;30.500;2022-10-16T09:07:32;8.63;;;3.63;;
35839;SDS011;35514;50.504;30.500;2022-10-16T09:10:13;6.85;;;3.08;;
35839;SDS011;35514;50.504;30.500;2022-10-16T09:12:51;6.45;;;2.85;;
35839;SDS011;35514;50.504;30.500;2022-10-16T09:15:23;7.28;;;2.85;;
35839;SDS011;35514;50.504;30.500;2022-10-16T09:17:56;6.53;;;2.78;;
35839;SDS011;35514;50.504;30.500;2022-10-16T09:20:33;6.28;;;3.13;;
35839;SDS011;35514;50.504;30.500;2022-10-16T09:23:14;6.35;;;3.47;;
35839;SDS011;35514;50.504;30.500;2022-10-16T09:25:43;10.25;;;3.60;;
35839;SDS011;35514;50.504;30.500;2022-10-16T09:28:11;8.93;;;3.00;;
35839;SDS011;35514;50.504;30.500;2022-10-16T09:30:39;5.60;;;3.00;;
35839;SDS011;35514;50.504;30.500;2022-10-16T09:33:08;4.53;;;3.03;;
35839;SDS011;35514;50.504;30.500;2022-10-16T09:35:37;4.65;;;2.83;;
35839;SDS011;35514;50.504;30.500;2022-10-16T09:41:00;5.43;;;2.78;;
35839;SDS011;35514;50.504;30.500;2022-10-16T09:43:38;9.63;;;3.70;;
35839;SDS011;35514;50.504;30.500;2022-10-16T09:46:19;10.52;;;3.58;;
35839;SDS011;35514;50.504;30.500;2022-10-16T09:48:50;4.93;;;2.90;;
35839;SDS011;35514;50.504;30.500;2022-10-16T09:51:24;12.25;;;8.18;;
35839;SDS011;35514;50.504;30.500;2022-10-16T09:53:56;4.68;;;3.10;;
35839;SDS011;35514;50.504;30.500;2022-10-16T09:56:24;7.22;;;3.10;;
35839;SDS011;35514;50.504;30.500;2022-10-16T09:58:53;7.85;;;2.95;;
35839;SDS011;35514;50.504;30.500;2022-10-16T10:01:22;6.93;;;3.25;;
35839;SDS011;35514;50.504;30.500;2022-10-16T10:03:55;10.60;;;3.28;;
35839;SDS011;35514;50.504;30.500;2022-10-16T10:06:28;5.60;;;2.90;;
35839;SDS011;35514;50.504;30.500;2022-10-16T10:09:04;6.60;;;2.92;;
35839;SDS011;35514;50.504;30.500;2022-10-16T10:11:45;6.50;;;3.13;;
35839;SDS011;35514;50.504;30.500;2022-10-16T10:14:16;5.15;;;3.08;;
35839;SDS011;35514;50.504;30.500;2022-10-16T10:16:46;4.82;;;2.83;;
35839;SDS011;35514;50.504;30.500;2022-10-16T10:19:16;8.27;;;2.60;;
35839;SDS011;35514;50.504;30.500;2022-10-16T10:21:45;8.07;;;3.17;;
35839;SDS011;35514;50.504;30.500;2022-10-16T10:24:13;5.13;;;2.70;;
35839;SDS011;35514;50.504;30.500;2022-10-16T10:26:44;5.57;;;2.97;;
35839;SDS011;35514;50.504;30.500;2022-10-16T10:29:15;6.50;;;2.80;;
35839;SDS011;35514;50.504;30.500;2022-10-16T10:31:45;5.30;;;2.22;;
35839;SDS011;35514;50.504;30.500;2022-10-16T10:34:21;7.22;;;3.00;;
35839;SDS011;35514;50.504;30.500;2022-10-16T10:36:52;5.35;;;2.30;;
35839;SDS011;35514;50.504;30.500;2022-10-16T10:39:23;4.78;;;2.55;;
35839;SDS011;35514;50.504;30.500;2022-10-16T10:44:49;6.30;;;3.42;;
35839;SDS011;35514;50.504;30.500;2022-10-16T10:47:27;5.47;;;2.70;;
35839;SDS011;35514;50.504;30.500;2022-10-16T10:50:04;4.15;;;2.88;;
35839;SDS011;35514;50.504;30.500;2022-10-16T10:52:41;5.38;;;2.85;;
35839;SDS011;35514;50.504;30.500;2022-10-16T10:55:15;6.53;;;2.92;;
35839;SDS011;35514;50.504;30.500;2022-10-16T10:57:49;8.32;;;2.70;;
35839;SDS011;35514;50.504;30.500;2022-10-16T11:00:20;6.70;;;2.83;;
35839;SDS011;35514;50.504;30.500;2022-10-16T11:02:52;4.32;;;2.78;;
35839;SDS011;35514;50.504;30.500;2022-10-16T11:05:25;5.55;;;2.72;;
35839;SDS011;35514;50.504;30.500;2022-10-16T11:07:56;7.13;;;3.25;;
35839;SDS011;35514;50.504;30.500;2022-10-16T11:10:26;6.68;;;3.30;;
35839;SDS011;35514;50.504;30.500;2022-10-16T11:12:55;4.78;;;2.90;;
35839;SDS011;35514;50.504;30.500;2022-10-16T11:15:25;3.25;;;2.20;;
35839;SDS011;35514;50.504;30.500;2022-10-16T11:17:55;6.25;;;2.42;;
35839;SDS011;35514;50.504;30.500;2022-10-16T11:20:26;5.05;;;2.78;;
35839;SDS011;35514;50.504;30.500;2022-10-16T11:22:56;5.72;;;2.40;;
35839;SDS011;35514;50.504;30.500;2022-10-16T11:25:25;3.92;;;2.30;;
35839;SDS011;35514;50.504;30.500;2022-10-16T11:27:55;5.32;;;2.47;;
35839;SDS011;35514;50.504;30.500;2022-10-16T11:30:25;5.43;;;2.42;;
35839;SDS011;35514;50.504;30.500;2022-10-16T11:32:56;4.05;;;2.30;;
35839;SDS011;35514;50.504;30.500;2022-10-16T11:35:32;7.18;;;2.55;;
35839;SDS011;35514;50.504;30.500;2022-10-16T11:38:07;4.68;;;2.75;;
35839;SDS011;35514;50.504;30.500;2022-10-16T11:40:38;3.95;;;2.33;;
35839;SDS011;35514;50.504;30.500;2022-10-16T11:43:12;7.95;;;3.58;;
35839;SDS011;35514;50.504;30.500;2022-10-16T11:48:12;3.67;;;2.58;;
35839;SDS011;35514;50.504;30.500;2022-10-16T11:50:45;6.93;;;2.60;;
35839;SDS011;35514;50.504;30.500;2022-10-16T11:53:16;6.13;;;2.40;;
35839;SDS011;35514;50.504;30.500;2022-10-16T11:55:45;6.28;;;2.40;;
35839;SDS011;35514;50.504;30.500;2022-10-16T11:58:15;6.25;;;1.95;;
35839;SDS011;35514;50.504;30.500;2022-10-16T12:00:45;12.43;;;2.67;;
35839;SDS011;35514;50.504;30.500;2022-10-16T12:03:16;9.48;;;2.30;;
35839;SDS011;35514;50.504;30.500;2022-10-16T12:05:52;5.78;;;3.63;;
35839;SDS011;35514;50.504;30.500;2022-10-16T12:08:23;10.23;;;4.68;;
35839;SDS011;35514;50.504;30.500;2022-10-16T12:10:50;8.85;;;2.50;;
35839;SDS011;35514;50.504;30.500;2022-10-16T12:13:31;5.50;;;2.00;;
35839;SDS011;35514;50.504;30.500;2022-10-16T12:16:07;7.90;;;3.08;;
35839;SDS011;35514;50.504;30.500;2022-10-16T12:18:46;8.55;;;3.17;;
35839;SDS011;35514;50.504;30.500;2022-10-16T12:21:18;7.03;;;2.58;;
35839;SDS011;35514;50.504;30.500;2022-10-16T12:23:58;5.63;;;1.98;;
35839;SDS011;35514;50.504;30.500;2022-10-16T12:26:27;7.90;;;1.85;;
35839;SDS011;35514;50.504;30.500;2022-10-16T12:28:55;9.07;;;2.63;;
35839;SDS011;35514;50.504;30.500;2022-10-16T12:31:25;6.28;;;3.08;;
35839;SDS011;35514;50.504;30.500;2022-10-16T12:34:19;5.75;;;2.13;;
35839;SDS011;35514;50.504;30.500;2022-10-16T12:36:50;5.85;;;2.47;;
35839;SDS011;35514;50.504;30.500;2022-10-16T12:39:20;7.25;;;2.42;;
35839;SDS011;35514;50.504;30.500;2022-10-16T12:41:48;8.73;;;2.40;;
35839;SDS011;35514;50.504;30.500;2022-10-16T12:44:31;8.63;;;2.45;;
35839;SDS011;35514;50.504;30.500;2022-10-16T12:47:00;6.65;;;2.63;;
35839;SDS011;35514;50.504;30.500;2022-10-16T12:49:32;4.80;;;2.55;;
35839;SDS011;35514;50.504;30.500;2022-10-16T12:52:01;6.97;;;2.83;;
35839;SDS011;35514;50.504;30.500;2022-10-16T12:54:30;7.00;;;2.35;;
35839;SDS011;35514;50.504;30.500;2022-10-16T12:57:02;5.22;;;2.50;;
35839;SDS011;35514;50.504;30.500;2022-10-16T13:04:58;12.18;;;2.67;;
35839;SDS011;35514;50.504;30.500;2022-10-16T13:07:35;6.57;;;2.95;;
35839;SDS011;35514;50.504;30.500;2022-10-16T13:10:09;5.10;;;2.63;;
35839;SDS011;35514;50.504;30.500;2022-10-16T13:12:52;10.52;;;3.92;;
35839;SDS011;35514;50.504;30.500;2022-10-16T13:15:27;11.38;;;4.20;;
35839;SDS011;35514;50.504;30.500;2022-10-16T13:18:01;7.82;;;2.58;;
35839;SDS011;35514;50.504;30.500;2022-10-16T13:20:34;9.73;;;3.03;;
35839;SDS011;35514;50.504;30.500;2022-10-16T13:23:06;6.32;;;2.70;;
35839;SDS011;35514;50.504;30.500;2022-10-16T13:25:39;11.25;;;4.38;;
35839;SDS011;35514;50.504;30.500;2022-10-16T13:28:11;10.68;;;2.67;;
35839;SDS011;35514;50.504;30.500;2022-10-16T13:30:40;12.90;;;3.30;;
35839;SDS011;35514;50.504;30.500;2022-10-16T13:33:13;15.43;;;3.63;;
35839;SDS011;35514;50.504;30.500;2022-10-16T13:35:47;7.07;;;2.88;;
35839;SDS011;35514;50.504;30.500;2022-10-16T13:38:17;5.15;;;2.30;;
35839;SDS011;35514;50.504;30.500;2022-10-16T13:40:49;9.77;;;3.10;;
35839;SDS011;35514;50.504;30.500;2022-10-16T13:43:17;7.70;;;3.47;;
35839;SDS011;35514;50.504;30.500;2022-10-16T13:45:52;6.97;;;3.55;;
35839;SDS011;35514;50.504;30.500;2022-10-16T13:48:20;9.98;;;3.20;;
35839;SDS011;35514;50.504;30.500;2022-10-16T13:50:57;8.18;;;3.20;;
35839;SDS011;35514;50.504;30.500;2022-10-16T13:53:26;9.05;;;2.80;;
35839;SDS011;35514;50.504;30.500;2022-10-16T13:55:54;11.57;;;4.00;;
35839;SDS011;35514;50.504;30.500;2022-10-16T13:58:22;9.95;;;3.35;;
35839;SDS011;35514;50.504;30.500;2022-10-16T14:00:53;10.73;;;3.15;;
35839;SDS011;35514;50.504;30.500;2022-10-16T14:03:21;6.93;;;3.50;;
35839;SDS011;35514;50.504;30.500;2022-10-16T14:05:50;8.77;;;3.42;;
35839;SDS011;35514;50.504;30.500;2022-10-16T14:08:19;5.32;;;2.78;;
35839;SDS011;35514;50.504;30.500;2022-10-16T14:10:49;7.30;;;3.22;;
35839;SDS011;35514;50.504;30.500;2022-10-16T14:13:18;18.23;;;8.30;;
35839;SDS011;35514;50.504;30.500;2022-10-16T14:15:46;16.70;;;3.83;;
35839;SDS011;35514;50.504;30.500;2022-10-16T14:18:16;9.32;;;3.92;;
35839;SDS011;35514;50.504;30.500;2022-10-16T14:20:45;10.90;;;4.40;;
35839;SDS011;35514;50.504;30.500;2022-10-16T14:23:28;10.15;;;3.40;;
35839;SDS011;35514;50.504;30.500;2022-10-16T14:26:06;7.05;;;3.60;;
35839;SDS011;35514;50.504;30.500;2022-10-16T14:28:48;7.60;;;3.10;;
35839;SDS011;35514;50.504;30.500;2022-10-16T14:31:24;10.73;;;3.10;;
35839;SDS011;35514;50.504;30.500;2022-10-16T14:33:52;14.00;;;3.78;;
35839;SDS011;35514;50.504;30.500;2022-10-16T14:36:22;6.53;;;2.90;;
35839;SDS011;35514;50.504;30.500;2022-10-16T14:38:58;7.95;;;3.15;;
35839;SDS011;35514;50.504;30.500;2022-10-16T14:41:28;14.68;;;3.60;;
35839;SDS011;35514;50.504;30.500;2022-10-16T14:43:56;11.02;;;3.10;;
35839;SDS011;35514;50.504;30.500;2022-10-16T14:46:28;5.20;;;2.88;;
35839;SDS011;35514;50.504;30.500;2022-10-16T14:48:58;10.43;;;2.72;;
35839;SDS011;35514;50.504;30.500;2022-10-16T14:51:27;11.25;;;3.03;;
35839;SDS011;35514;50.504;30.500;2022-10-16T14:53:54;8.73;;;3.30;;
35839;SDS011;35514;50.504;30.500;2022-10-16T14:56:27;6.10;;;2.67;;
35839;SDS011;35514;50.504;30.500;2022-10-16T14:59:00;12.98;;;3.90;;
35839;SDS011;35514;50.504;30.500;2022-10-16T15:01:28;6.55;;;3.45;;
35839;SDS011;35514;50.504;30.500;2022-10-16T15:03:56;8.43;;;3.40;;
35839;SDS011;35514;50.504;30.500;2022-10-16T15:06:24;6.80;;;3.60;;
35839;SDS011;35514;50.504;30.500;2022-10-16T15:08:51;8.52;;;3.13;;
35839;SDS011;35514;50.504;30.500;2022-10-16T15:11:19;10.52;;;2.95;;
35839;SDS011;35514;50.504;30.500;2022-10-16T15:13:46;9.68;;;3.00;;
35839;SDS011;35514;50.504;30.500;2022-10-16T15:16:16;6.55;;;3.38;;